Time;durP1;ratioP1;P1;durP2;ratioP2;P2;SDS_P1;SDS_P2;PMS_P1;PMS_P2;Temp;Humidity;BMP_temperature;BMP_pressure;BME280_temperature;BME280_humidity;BME280_pressure;Samples;Min_cycle;Max_cycle;Signal;HPM_P1;HPM_P2
2024/04/17 00:01:25;;;;;;;6.35;1.45;;;3.20;99.90;;;1.59;100.00;100142.16;5228162;26;20091;-81
2024/04/17 00:03:56;;;;;;;3.55;1.20;;;3.20;99.90;;;1.57;100.00;100139.59;5242058;26;20002;-82
2024/04/17 00:06:22;;;;;;;4.28;1.33;;;3.20;99.90;;;1.68;100.00;100135.94;5181264;26;20415;-81
2024/04/17 00:08:47;;;;;;;8.13;1.90;;;3.30;99.90;;;1.78;100.00;100142.66;5242050;26;20045;-81
2024/04/17 00:11:13;;;;;;;6.45;1.80;;;3.30;99.90;;;1.88;100.00;100138.13;5223552;27;20013;-82
2024/04/17 00:13:39;;;;;;;8.07;1.55;;;3.40;99.90;;;1.97;100.00;100146.59;5205606;26;20029;-83
2024/04/17 00:16:08;;;;;;;3.78;1.27;;;3.40;99.90;;;2.07;100.00;100149.00;5224314;26;20450;-82
2024/04/17 00:18:36;;;;;;;4.70;1.40;;;3.50;99.90;;;2.15;100.00;100134.97;5253489;26;20037;-82
2024/04/17 00:21:04;;;;;;;4.97;1.45;;;3.60;99.90;;;2.23;100.00;100145.19;5197466;26;20010;-82
2024/04/17 00:23:30;;;;;;;3.42;1.40;;;3.60;99.90;;;2.25;100.00;100141.69;5194794;27;20003;-83
2024/04/17 00:25:56;;;;;;;8.35;2.53;;;3.60;99.90;;;2.26;100.00;100135.56;5256502;26;20483;-81
2024/04/17 00:28:26;;;;;;;7.25;1.65;;;3.70;99.90;;;2.26;100.00;100137.31;5237429;26;20005;-82
2024/04/17 00:30:52;;;;;;;5.43;1.63;;;3.70;99.90;;;2.24;100.00;100139.94;5253948;26;20015;-82
2024/04/17 00:33:18;;;;;;;8.15;1.80;;;3.70;99.90;;;2.24;100.00;100147.75;5263217;26;20014;-82
2024/04/17 00:35:44;;;;;;;10.30;1.90;;;3.70;99.90;;;2.24;100.00;100137.34;5211271;26;20068;-82
2024/04/17 00:38:09;;;;;;;7.55;1.67;;;3.70;99.90;;;2.26;100.00;100142.53;5232814;26;20012;-83
2024/04/17 00:40:35;;;;;;;3.25;1.45;;;3.70;99.90;;;2.22;100.00;100140.88;5194588;26;20030;-82
2024/04/17 00:43:06;;;;;;;7.40;1.80;;;3.70;99.90;;;2.18;100.00;100150.50;5253293;26;20005;-82
2024/04/17 00:45:50;;;;;;;6.10;1.83;;;3.60;99.90;;;2.11;100.00;100146.31;5184207;27;20026;-82
2024/04/17 00:48:16;;;;;;;6.80;1.35;;;3.60;99.90;;;2.05;100.00;100146.41;5257270;26;20031;-81
2024/04/17 00:50:57;;;;;;;4.05;1.55;;;3.50;99.90;;;2.00;100.00;100146.53;5266735;26;20010;-82
2024/04/17 00:53:26;;;;;;;3.85;1.60;;;3.50;99.90;;;1.93;100.00;100151.88;5243433;26;19998;-82
2024/04/17 00:55:56;;;;;;;7.15;1.70;;;3.40;99.90;;;1.84;100.00;100152.94;5240022;27;20006;-82
2024/04/17 00:58:23;;;;;;;6.85;1.70;;;3.40;99.90;;;1.80;100.00;100153.88;5200939;26;20353;-82
2024/04/17 01:00:48;;;;;;;5.30;1.63;;;3.30;99.90;;;1.78;100.00;100156.50;5213455;26;20031;-82
2024/04/17 01:03:14;;;;;;;7.40;2.10;;;3.30;99.90;;;1.72;100.00;100146.22;5215398;26;20013;-81
2024/04/17 01:05:45;;;;;;;3.75;1.67;;;3.20;99.90;;;1.69;100.00;100148.91;5218880;26;20571;-82
2024/04/17 01:08:11;;;;;;;5.15;2.00;;;3.20;99.90;;;1.61;100.00;100146.44;5208269;26;20011;-82
2024/04/17 01:10:36;;;;;;;4.63;2.10;;;3.20;99.90;;;1.56;100.00;100148.28;5255165;26;20006;-81
2024/04/17 01:13:03;;;;;;;11.38;2.38;;;3.20;99.90;;;1.56;100.00;100152.63;5234886;26;20027;-82
2024/04/17 01:15:28;;;;;;;3.70;2.15;;;3.20;99.90;;;1.50;100.00;100150.13;5226419;26;20467;-82
2024/04/17 01:17:55;;;;;;;12.57;2.72;;;3.10;99.90;;;1.55;100.00;100148.28;5226262;26;19998;-82
2024/04/17 01:20:23;;;;;;;6.03;1.98;;;3.20;99.90;;;1.55;100.00;100150.88;5255010;26;20009;-83
2024/04/17 01:22:52;;;;;;;6.85;2.13;;;3.20;99.90;;;1.56;100.00;100150.00;5257238;26;20703;-82
2024/04/17 01:25:17;;;;;;;8.82;2.38;;;3.20;99.90;;;1.53;100.00;100143.13;5240327;26;20524;-82
2024/04/17 01:27:43;;;;;;;7.80;2.30;;;3.20;99.90;;;1.54;100.00;100144.84;5212352;26;20012;-82
2024/04/17 01:30:10;;;;;;;8.98;2.22;;;3.20;99.90;;;1.49;100.00;100144.09;5262692;26;21753;-82
2024/04/17 01:32:35;;;;;;;6.60;2.20;;;3.20;99.90;;;1.46;100.00;100149.31;5247168;26;20012;-81
2024/04/17 01:35:08;;;;;;;5.30;2.25;;;3.20;99.90;;;1.47;100.00;100152.75;5235625;26;20005;-83
2024/04/17 01:37:34;;;;;;;6.82;2.13;;;3.20;99.90;;;1.50;100.00;100150.97;5204234;26;20017;-82
2024/04/17 01:40:00;;;;;;;8.45;2.28;;;3.10;99.90;;;1.52;100.00;100151.81;5273477;26;20005;-82
2024/04/17 01:42:25;;;;;;;5.57;2.40;;;3.10;99.90;;;1.52;100.00;100158.75;5198775;26;20014;-82
2024/04/17 01:44:51;;;;;;;10.23;3.10;;;3.10;99.90;;;1.55;100.00;100158.66;5251659;26;20406;-82
2024/04/17 01:47:17;;;;;;;6.55;2.25;;;3.10;99.90;;;1.59;100.00;100165.50;5208228;26;20344;-82
2024/04/17 01:49:47;;;;;;;9.68;2.20;;;3.10;99.90;;;1.60;100.00;100159.47;5239089;26;20007;-83
2024/04/17 01:52:13;;;;;;;7.82;2.25;;;3.10;99.90;;;1.60;100.00;100156.88;5204392;27;20013;-82
2024/04/17 01:54:39;;;;;;;5.47;2.38;;;3.10;99.90;;;1.62;100.00;100157.66;5234832;26;20006;-83
2024/04/17 01:57:04;;;;;;;10.68;2.45;;;3.10;99.90;;;1.59;100.00;100158.56;5215974;26;20018;-82
2024/04/17 01:59:30;;;;;;;8.27;2.53;;;3.10;99.90;;;1.61;100.00;100156.81;5209721;26;20030;-83
2024/04/17 02:01:56;;;;;;;7.00;2.85;;;3.10;99.90;;;1.62;100.00;100157.66;5252229;26;20005;-80
2024/04/17 02:04:26;;;;;;;6.68;2.63;;;3.10;99.90;;;1.68;100.00;100160.13;5221559;26;20052;-83
2024/04/17 02:06:54;;;;;;;3.15;2.03;;;3.20;99.90;;;1.69;100.00;100148.91;5191852;27;20072;-82
2024/04/17 02:09:20;;;;;;;5.35;2.35;;;3.20;99.90;;;1.72;100.00;100148.81;5197155;26;20022;-83
2024/04/17 02:11:46;;;;;;;14.93;4.10;;;3.20;99.90;;;1.77;100.00;100156.50;5212550;26;19997;-82
2024/04/17 02:14:12;;;;;;;6.50;2.75;;;3.20;99.90;;;1.80;100.00;100162.50;5228647;26;20002;-83
2024/04/17 02:16:42;;;;;;;6.80;2.13;;;3.20;99.90;;;1.84;100.00;100156.38;5218317;26;19999;-82
2024/04/17 02:19:08;;;;;;;10.70;2.35;;;3.30;99.90;;;1.90;100.00;100158.00;5240743;26;20501;-82
2024/04/17 02:21:33;;;;;;;8.35;2.63;;;3.30;99.90;;;1.96;100.00;100162.19;5265360;26;20109;-82
2024/04/17 02:23:59;;;;;;;4.18;2.08;;;3.40;99.90;;;2.03;100.00;100167.25;5284825;26;20005;-83
2024/04/17 02:26:25;;;;;;;9.18;2.55;;;3.40;99.90;;;2.07;100.00;100162.81;5237306;26;20087;-82
2024/04/17 02:28:50;;;;;;;3.63;2.30;;;3.50;99.90;;;2.14;100.00;100167.03;5215311;26;20005;-82
2024/04/17 02:31:16;;;;;;;9.60;2.30;;;3.60;99.90;;;2.19;100.00;100170.38;5242614;26;20015;-82
2024/04/17 02:33:46;;;;;;;9.75;2.28;;;3.60;99.90;;;2.25;100.00;100170.25;5266598;26;20029;-83
2024/04/17 02:36:12;;;;;;;5.25;2.15;;;3.60;99.90;;;2.28;100.00;100169.31;5260171;26;20064;-83
2024/04/17 02:38:38;;;;;;;11.27;2.35;;;3.70;99.90;;;2.32;100.00;100170.97;5241858;26;20006;-82
2024/04/17 02:41:03;;;;;;;6.85;3.20;;;3.70;99.90;;;2.35;100.00;100168.28;5237169;26;20005;-82
2024/04/17 02:43:29;;;;;;;10.32;3.10;;;3.80;99.90;;;2.41;100.00;100177.72;5248649;26;20006;-83
2024/04/17 02:45:55;;;;;;;10.07;2.75;;;3.80;99.90;;;2.45;100.00;100176.75;5285776;26;20016;-82
2024/04/17 02:48:20;;;;;;;3.83;2.25;;;3.80;99.90;;;2.49;100.00;100175.81;5221542;26;20543;-83
2024/04/17 02:50:51;;;;;;;4.75;2.05;;;3.90;99.90;;;2.49;100.00;100175.81;5218846;27;20497;-83
2024/04/17 02:53:17;;;;;;;4.13;1.80;;;3.30;99.90;;;2.43;100.00;100175.94;5178026;27;20347;-82
2024/04/17 02:55:42;;;;;;;5.28;1.55;;;3.80;99.90;;;2.43;100.00;100173.34;5239166;26;20006;-83
2024/04/17 02:58:08;;;;;;;6.53;2.22;;;3.80;99.90;;;2.44;100.00;100175.03;5238579;26;20324;-82
2024/04/17 03:00:34;;;;;;;13.68;2.30;;;3.90;99.90;;;2.45;100.00;100180.22;5243374;26;20021;-83
2024/04/17 03:03:04;;;;;;;10.57;2.35;;;3.90;99.90;;;2.49;100.00;100177.56;5249065;26;19998;-83
2024/04/17 03:05:35;;;;;;;9.93;2.10;;;3.90;99.90;;;2.50;100.00;100174.91;5214143;26;20472;-81
2024/04/17 03:08:02;;;;;;;6.53;2.17;;;3.90;99.90;;;2.51;100.00;100188.78;5237596;26;20012;-83
2024/04/17 03:10:28;;;;;;;7.60;1.80;;;3.90;99.90;;;2.46;100.00;100194.03;5241643;26;21121;-82
2024/04/17 03:12:59;;;;;;;3.33;1.60;;;3.90;99.90;;;2.39;100.00;100192.47;5268663;26;20002;-81
2024/04/17 03:15:25;;;;;;;9.02;1.75;;;3.80;99.90;;;2.36;100.00;100182.16;5252267;26;20049;-82
2024/04/17 03:18:01;;;;;;;;;;;;;;;;;;;;;
2024/04/17 03:20:26;;;;;;;;;;;3.80;99.90;;;2.35;100.00;100196.03;5234618;26;20483;-82
2024/04/17 03:22:52;;;;;;;10.00;1.87;;;3.80;99.90;;;2.36;100.00;100195.16;5282462;26;19925;-82
2024/04/17 03:25:18;;;;;;;3.92;1.80;;;3.80;99.90;;;2.38;100.00;100191.63;5238854;26;20476;-82
2024/04/17 03:27:44;;;;;;;5.53;1.95;;;3.80;99.90;;;2.44;100.00;100198.41;5243454;26;20007;-82
2024/04/17 03:30:10;;;;;;;4.70;1.83;;;3.90;99.90;;;2.50;100.00;100194.84;5218324;26;20067;-82
2024/04/17 03:32:36;;;;;;;8.00;2.28;;;3.90;99.90;;;2.54;100.00;100196.50;5158837;26;20002;-82
2024/04/17 03:35:04;;;;;;;7.30;2.17;;;3.90;99.90;;;2.59;100.00;100199.84;5238724;26;20005;-83
2024/04/17 03:37:32;;;;;;;10.02;2.20;;;4.00;99.90;;;2.60;100.00;100199.81;5184438;26;20002;-83
2024/04/17 03:39:58;;;;;;;6.30;2.60;;;4.00;99.90;;;2.63;100.00;100194.53;5254059;26;20014;-82
2024/04/17 03:42:24;;;;;;;6.65;2.67;;;4.00;99.90;;;2.67;100.00;100198.78;5281344;26;20028;-83
2024/04/17 03:44:49;;;;;;;6.78;2.67;;;4.10;99.90;;;2.73;100.00;100204.75;5236408;26;20420;-83
2024/04/17 03:47:15;;;;;;;8.10;2.47;;;4.10;99.90;;;2.76;100.00;100204.66;5184507;26;20094;-82
2024/04/17 03:49:41;;;;;;;7.65;2.45;;;4.20;99.90;;;2.80;100.00;100206.28;5255437;26;19997;-83
2024/04/17 03:52:16;;;;;;;7.60;2.55;;;4.20;99.90;;;2.83;100.00;100214.00;5230525;26;20413;-83
2024/04/17 03:54:41;;;;;;;3.58;2.20;;;4.20;99.90;;;2.81;100.00;100218.44;5223390;26;20049;-82
2024/04/17 03:57:07;;;;;;;6.03;2.38;;;4.20;99.90;;;2.74;100.00;100214.22;5239865;26;20011;-83
2024/04/17 03:59:40;;;;;;;3.90;1.95;;;4.10;99.90;;;2.69;100.00;100214.34;5264681;26;20019;-83
2024/04/17 04:02:06;;;;;;;7.07;2.00;;;4.10;99.90;;;2.63;100.00;100211.88;5237973;26;20016;-83
2024/04/17 04:04:32;;;;;;;6.47;1.95;;;4.00;99.90;;;2.61;100.00;100211.06;5204820;26;20002;-83
2024/04/17 04:06:58;;;;;;;9.13;4.07;;;4.00;99.90;;;2.63;100.00;100225.72;5256456;26;20034;-82
2024/04/17 04:09:24;;;;;;;40.00;16.05;;;4.10;99.90;;;2.68;100.00;100220.44;5198963;26;20014;-82
2024/04/17 04:11:57;;;;;;;30.42;12.05;;;4.10;99.90;;;2.72;100.00;100213.41;5205043;26;20465;-82
2024/04/17 04:14:23;;;;;;;19.60;8.93;;;4.10;99.90;;;2.77;100.00;100216.78;5211806;26;20367;-83
2024/04/17 04:16:49;;;;;;;14.88;6.38;;;4.20;99.90;;;2.82;100.00;100212.31;5199760;27;20102;-83
2024/04/17 04:19:14;;;;;;;10.10;3.47;;;4.20;99.90;;;2.87;100.00;100206.13;5199484;26;20048;-84
2024/04/17 04:21:42;;;;;;;10.32;3.90;;;4.30;99.90;;;2.94;100.00;100209.44;5258222;26;20000;-84
2024/04/17 04:24:10;;;;;;;12.68;3.00;;;4.40;99.90;;;3.00;100.00;100211.91;5274752;26;20006;-82
2024/04/17 04:26:36;;;;;;;9.38;2.78;;;4.00;99.90;;;3.03;100.00;100209.22;5187267;26;20035;-82
2024/04/17 04:29:02;;;;;;;8.82;3.00;;;4.40;99.90;;;3.05;100.00;100207.44;5179035;26;20069;-83
2024/04/17 04:31:29;;;;;;;9.05;3.03;;;4.50;99.90;;;3.09;100.00;100210.84;5252098;26;20010;-82
2024/04/17 04:33:55;;;;;;;8.18;2.60;;;4.50;99.90;;;3.11;100.00;100213.38;5237659;26;20016;-82
2024/04/17 04:36:21;;;;;;;7.43;2.90;;;4.50;99.90;;;3.13;100.00;100203.78;5181972;27;20606;-82
2024/04/17 04:38:50;;;;;;;11.65;3.17;;;4.50;99.90;;;3.18;100.00;100220.16;5167636;27;20081;-81
2024/04/17 04:41:17;;;;;;;7.07;2.95;;;4.60;99.90;;;3.21;100.00;100225.28;5239005;26;20001;-82
2024/04/17 04:43:43;;;;;;;8.27;3.10;;;4.60;99.90;;;3.24;100.00;100236.47;5294239;26;20019;-83
2024/04/17 04:46:10;;;;;;;7.53;2.75;;;4.60;99.90;;;3.26;100.00;100219.09;5189896;27;20022;-81
2024/04/17 04:48:36;;;;;;;6.80;2.38;;;4.70;99.90;;;3.29;100.00;100223.34;5240373;26;20010;-82
2024/04/17 04:51:07;;;;;;;6.75;3.42;;;4.70;99.90;;;3.33;100.00;100221.53;5261643;26;20055;-82
2024/04/17 04:53:32;;;;;;;10.05;3.17;;;4.70;99.90;;;3.39;100.00;100234.38;5239433;26;20056;-82
2024/04/17 04:56:02;;;;;;;12.98;3.33;;;4.80;99.90;;;3.45;100.00;100235.06;5224131;26;20010;-81
2024/04/17 04:58:29;;;;;;;5.63;2.80;;;4.80;99.90;;;3.54;100.00;100238.34;5207413;27;20035;-82
2024/04/17 05:01:00;;;;;;;5.50;3.25;;;4.90;99.90;;;3.59;100.00;100242.53;5202718;26;20085;-82
2024/04/17 05:03:26;;;;;;;9.05;3.30;;;4.90;99.90;;;3.66;100.00;100245.84;5222610;26;20001;-82
2024/04/17 05:05:52;;;;;;;6.15;3.22;;;5.00;99.90;;;3.72;100.00;100248.28;5216798;26;20062;-83
2024/04/17 05:08:18;;;;;;;10.73;3.42;;;5.10;99.90;;;3.77;100.00;100246.41;5223695;26;20017;-82
2024/04/17 05:10:44;;;;;;;10.15;3.55;;;5.20;99.90;;;3.81;100.00;100253.25;5229979;26;20012;-82
2024/04/17 05:13:10;;;;;;;12.65;3.20;;;5.20;99.90;;;3.85;100.00;100246.22;5293049;26;20012;-82
2024/04/17 05:15:38;;;;;;;5.57;2.70;;;5.20;99.90;;;3.92;100.00;100250.38;5239237;26;20012;-82
2024/04/17 05:18:04;;;;;;;7.45;3.13;;;5.30;99.90;;;3.97;100.00;100247.63;5218892;26;20003;-83
2024/04/17 05:20:30;;;;;;;9.20;2.88;;;5.30;99.90;;;4.02;100.00;100251.84;5220970;26;20448;-82
2024/04/17 05:22:56;;;;;;;9.93;3.10;;;5.40;99.90;;;4.08;100.00;100253.41;5249572;26;20077;-82
2024/04/17 05:25:22;;;;;;;11.57;3.10;;;5.40;99.90;;;4.10;100.00;100254.22;5250872;26;20018;-82
2024/04/17 05:27:48;;;;;;;5.93;2.72;;;5.50;99.90;;;4.16;100.00;100251.44;5177283;26;20040;-82
2024/04/17 05:30:18;;;;;;;6.78;2.92;;;5.50;99.90;;;4.22;100.00;100256.50;5230366;26;20036;-82
2024/04/17 05:32:46;;;;;;;11.70;2.70;;;5.60;99.90;;;4.27;100.00;100257.19;5240774;26;19993;-82
2024/04/17 05:35:12;;;;;;;10.48;4.40;;;5.60;99.90;;;4.31;100.00;100257.97;5201838;27;20003;-82
2024/04/17 05:37:38;;;;;;;18.08;6.35;;;5.60;99.90;;;4.32;100.00;100257.94;5226405;26;20008;-82
2024/04/17 05:40:09;;;;;;;16.27;6.90;;;5.70;99.90;;;4.32;100.00;100255.34;5254804;26;20001;-83
2024/04/17 05:42:34;;;;;;;8.30;3.33;;;5.70;99.90;;;4.33;100.00;100258.78;5235511;26;20014;-84
2024/04/17 05:45:00;;;;;;;8.70;2.50;;;5.70;99.90;;;4.34;100.00;100257.88;5193966;26;20392;-82
2024/04/17 05:47:26;;;;;;;5.50;2.40;;;5.70;99.90;;;4.37;100.00;100264.78;5242559;26;20026;-82
2024/04/17 05:49:52;;;;;;;10.90;2.90;;;5.80;99.90;;;4.43;100.00;100269.81;5249170;26;20006;-82
2024/04/17 05:52:17;;;;;;;10.63;2.80;;;5.80;99.90;;;4.48;100.00;100268.78;5243903;26;20005;-81
2024/04/17 05:54:44;;;;;;;14.35;3.20;;;5.80;99.90;;;4.50;100.00;100269.59;5276706;26;20006;-83
2024/04/17 05:57:15;;;;;;;9.95;3.13;;;5.90;99.90;;;4.55;100.00;100268.59;5250129;26;20021;-82
2024/04/17 05:59:41;;;;;;;14.45;3.83;;;5.90;99.90;;;4.59;100.00;100262.41;5218569;26;20631;-83
2024/04/17 06:02:07;;;;;;;7.88;3.10;;;6.00;99.90;;;4.60;100.00;100262.38;5227327;26;20012;-82
2024/04/17 06:04:33;;;;;;;5.55;2.45;;;6.00;99.90;;;4.66;100.00;100270.00;5223721;26;20037;-82
2024/04/17 06:06:58;;;;;;;6.20;2.15;;;6.00;99.90;;;4.71;100.00;100262.91;5218426;26;20001;-82
2024/04/17 06:09:24;;;;;;;10.13;2.53;;;6.10;99.90;;;4.75;100.00;100268.84;5261991;26;20056;-82
2024/04/17 06:11:57;;;;;;;8.00;2.50;;;6.10;99.90;;;4.84;100.00;100266.00;5210087;26;20010;-82
2024/04/17 06:14:23;;;;;;;4.28;2.67;;;6.20;99.90;;;4.95;100.00;100268.28;5267479;26;20000;-82
2024/04/17 06:16:49;;;;;;;4.57;1.90;;;6.30;99.90;;;5.04;100.00;100274.97;5213842;26;20079;-82
2024/04/17 06:19:15;;;;;;;3.67;1.52;;;6.40;99.90;;;5.18;100.00;100277.13;5240584;27;20006;-83
2024/04/17 06:21:41;;;;;;;4.45;1.67;;;6.50;99.90;;;5.26;100.00;100276.00;5237123;26;20075;-82
2024/04/17 06:24:07;;;;;;;6.15;1.20;;;6.60;99.90;;;5.31;100.00;100262.78;5230578;26;20017;-81
2024/04/17 06:26:32;;;;;;;3.25;1.50;;;6.70;99.90;;;5.41;100.00;100273.78;5200401;26;20032;-82
2024/04/17 06:28:58;;;;;;;11.77;3.90;;;6.80;99.90;;;5.50;100.00;100274.34;5249042;26;20024;-82
2024/04/17 06:31:29;;;;;;;6.45;1.30;;;6.80;99.90;;;5.60;100.00;100281.88;5226969;26;19999;-82
2024/04/17 06:33:55;;;;;;;1.88;0.93;;;6.90;99.90;;;5.64;100.00;100278.28;5253448;26;20091;-82
2024/04/17 06:36:21;;;;;;;4.72;1.20;;;7.00;99.90;;;5.66;100.00;100282.53;5224371;26;19997;-83
2024/04/17 06:38:46;;;;;;;3.72;1.10;;;7.00;99.90;;;5.72;100.00;100284.06;5220417;26;20014;-82
2024/04/17 06:41:14;;;;;;;2.83;1.02;;;7.00;99.90;;;5.73;100.00;100288.41;5233137;26;20016;-83
2024/04/17 06:43:45;;;;;;;1.98;0.88;;;7.00;99.90;;;5.75;100.00;100289.22;5221210;26;20026;-82
2024/04/17 06:46:11;;;;;;;3.17;1.00;;;7.10;99.90;;;5.76;100.00;100296.13;5249821;26;20003;-83
2024/04/17 06:48:37;;;;;;;3.42;1.15;;;7.10;99.90;;;5.69;99.44;100307.69;5255408;26;20148;-83
2024/04/17 06:51:03;;;;;;;6.07;1.50;;;7.00;99.90;;;5.52;99.15;100306.47;5282464;26;20095;-83
2024/04/17 06:53:29;;;;;;;3.58;0.90;;;6.90;99.90;;;5.42;98.61;100314.66;5218478;26;20082;-82
2024/04/17 06:55:59;;;;;;;3.25;1.23;;;6.90;99.90;;;5.27;98.81;100318.59;5221022;26;20053;-82
2024/04/17 06:58:25;;;;;;;3.40;1.90;;;6.70;99.90;;;5.09;100.00;100326.09;5251258;26;20013;-83
2024/04/17 07:00:52;;;;;;;6.90;1.90;;;6.60;99.90;;;4.93;100.00;100324.88;5252224;26;20022;-83
2024/04/17 07:03:18;;;;;;;3.70;1.50;;;6.50;99.90;;;4.70;100.00;100328.97;5248120;26;21735;-82
2024/04/17 07:05:44;;;;;;;2.85;1.55;;;6.40;99.90;;;4.62;100.00;100325.78;5210748;26;20037;-84
2024/04/17 07:08:19;;;;;;;4.47;1.65;;;6.20;99.90;;;4.40;100.00;100338.53;5206339;26;20016;-83
2024/04/17 07:10:45;;;;;;;4.13;1.55;;;6.10;99.90;;;4.29;100.00;100331.00;5224834;26;19998;-82
2024/04/17 07:13:11;;;;;;;7.40;1.40;;;6.00;99.90;;;4.25;100.00;100316.34;5184966;26;19997;-83
2024/04/17 07:15:37;;;;;;;7.78;1.70;;;5.90;99.90;;;4.35;100.00;100316.09;5236250;26;20511;-82
2024/04/17 07:18:08;;;;;;;3.50;1.20;;;5.90;99.90;;;4.37;100.00;100301.28;5241469;26;20024;-83
2024/04/17 07:20:34;;;;;;;4.63;1.00;;;5.80;99.90;;;4.25;100.00;100272.03;5222649;26;20005;-83
2024/04/17 07:23:00;;;;;;;5.68;1.23;;;5.70;99.90;;;4.19;100.00;100269.63;5167033;26;20012;-84
2024/04/17 07:25:26;;;;;;;5.57;1.20;;;5.60;99.90;;;4.18;100.00;100270.50;5235975;26;20014;-83
2024/04/17 07:27:52;;;;;;;4.45;1.15;;;5.70;99.90;;;4.26;100.00;100286.78;5200489;27;20011;-84
2024/04/17 07:30:18;;;;;;;4.57;1.10;;;5.70;99.90;;;4.30;100.00;100285.81;5211615;26;20063;-83
2024/04/17 07:32:49;;;;;;;5.70;1.00;;;5.70;99.90;;;4.40;100.00;100288.16;5182670;26;20701;-82
2024/04/17 07:35:15;;;;;;;1.73;0.80;;;5.80;99.90;;;4.49;100.00;100301.78;5240726;26;20075;-85
2024/04/17 07:37:40;;;;;;;2.47;1.00;;;5.90;99.90;;;4.59;100.00;100304.97;5252797;26;20449;-82
2024/04/17 07:40:08;;;;;;;3.70;1.30;;;6.00;99.90;;;4.72;100.00;100308.94;5215015;27;20106;-82
2024/04/17 07:42:33;;;;;;;3.10;1.05;;;6.10;99.90;;;4.84;100.00;100309.50;5196433;26;19998;-82
2024/04/17 07:45:07;;;;;;;3.42;0.98;;;6.20;99.90;;;4.97;100.00;100316.06;5233666;26;20045;-82
2024/04/17 07:47:32;;;;;;;2.25;0.82;;;6.30;99.90;;;5.10;100.00;100312.16;5198297;27;20002;-82
2024/04/17 07:49:58;;;;;;;2.85;0.70;;;6.40;99.90;;;5.22;100.00;100320.50;5236546;26;20046;-82
2024/04/17 07:52:24;;;;;;;4.75;0.60;;;6.60;99.90;;;5.35;100.00;100332.28;5213407;27;20478;-83
2024/04/17 07:54:50;;;;;;;2.50;0.68;;;6.70;99.90;;;5.46;100.00;100321.50;5194011;26;20030;-82
2024/04/17 07:57:23;;;;;;;2.40;0.75;;;6.80;99.90;;;5.57;99.90;100318.53;5228229;26;20000;-82
2024/04/17 07:59:49;;;;;;;1.40;0.60;;;6.90;99.90;;;5.69;99.07;100323.38;5196437;27;19999;-82
2024/04/17 08:02:15;;;;;;;3.15;0.80;;;7.00;99.90;;;5.87;98.88;100330.59;5229096;26;20553;-83
2024/04/17 08:04:40;;;;;;;4.13;0.80;;;7.10;99.90;;;5.93;97.92;100325.16;5184619;26;20007;-82
2024/04/17 08:07:14;;;;;;;1.73;0.85;;;7.20;99.90;;;5.98;96.61;100324.19;5235108;26;20053;-82
2024/04/17 08:09:42;;;;;;;4.32;0.68;;;7.30;99.90;;;6.20;96.22;100338.25;5218634;26;19998;-82
2024/04/17 08:12:08;;;;;;;2.10;0.80;;;7.60;99.90;;;6.53;96.60;100340.56;5206794;26;20368;-82
2024/04/17 08:14:34;;;;;;;3.47;0.77;;;7.80;99.90;;;6.93;96.21;100347.81;5214000;26;20012;-83
2024/04/17 08:17:04;;;;;;;2.00;0.73;;;8.20;99.90;;;7.34;96.14;100353.22;5270365;27;20010;-82
2024/04/17 08:19:30;;;;;;;3.65;1.00;;;8.50;99.90;;;7.76;95.11;100352.41;5252696;26;20018;-81
2024/04/17 08:21:56;;;;;;;2.38;0.93;;;8.90;99.90;;;8.10;92.72;100355.38;5216598;26;20514;-82
2024/04/17 08:24:22;;;;;;;2.00;0.60;;;9.20;99.90;;;8.44;90.83;100360.06;5215783;26;20013;-82
2024/04/17 08:26:48;;;;;;;5.00;0.90;;;9.60;99.90;;;8.77;88.03;100364.78;5232065;26;20008;-82
2024/04/17 08:29:14;;;;;;;6.75;1.60;;;9.90;99.90;;;9.05;85.48;100361.75;5168622;26;20089;-84
2024/04/17 08:31:47;;;;;;;3.85;1.30;;;10.20;99.90;;;9.47;85.76;100379.03;5205195;27;20002;-82
2024/04/17 08:34:13;;;;;;;2.15;1.60;;;10.60;99.90;;;9.82;84.29;100376.47;5218148;26;20007;-83
2024/04/17 08:36:39;;;;;;;7.60;1.80;;;11.00;99.90;;;10.15;83.08;100386.25;5198591;26;20006;-82
2024/04/17 08:39:05;;;;;;;2.22;1.15;;;11.30;99.90;;;10.38;80.25;100388.59;5270337;26;20014;-83
2024/04/17 08:41:42;;;;;;;3.80;1.60;;;11.50;99.90;;;10.53;79.68;100391.38;5222736;26;20015;-82
2024/04/17 08:44:18;;;;;;;5.57;1.58;;;11.60;99.90;;;10.72;77.62;100386.03;5243996;26;20620;-82
2024/04/17 08:46:46;;;;;;;3.38;1.40;;;11.80;99.90;;;10.85;75.71;100387.06;5189301;26;20010;-82
2024/04/17 08:49:14;;;;;;;3.55;1.42;;;12.00;99.90;;;11.03;75.18;100391.34;5179412;26;20002;-83
2024/04/17 08:51:48;;;;;;;4.28;1.60;;;12.20;99.90;;;11.33;75.25;100395.03;5213973;27;20014;-83
2024/04/17 08:54:16;;;;;;;6.25;1.40;;;12.60;99.90;;;11.68;75.27;100391.31;5165196;26;20476;-84
2024/04/17 08:56:47;;;;;;;2.55;1.20;;;12.90;99.90;;;12.04;74.02;100400.69;5228479;26;20009;-84
2024/04/17 08:59:14;;;;;;;2.70;1.20;;;;;;;11.69;73.49;100403.53;5180552;27;20011;-83
2024/04/17 09:01:43;;;;;;;4.05;1.30;;;13.00;99.90;;;11.43;72.93;100404.16;5232454;26;20093;-83
2024/04/17 09:04:18;;;;;;;1.88;1.08;;;12.70;99.90;;;11.09;71.67;100401.56;5211471;26;20017;-83
2024/04/17 09:06:44;;;;;;;3.30;1.33;;;12.30;99.90;;;10.87;71.73;100404.50;5255987;26;20014;-83
2024/04/17 09:09:19;;;;;;;3.97;1.70;;;12.10;99.90;;;10.74;72.75;100392.06;5248719;26;20013;-83
2024/04/17 09:11:45;;;;;;;5.20;1.67;;;12.00;99.90;;;10.77;74.11;100390.09;5214302;26;20012;-84
2024/04/17 09:14:11;;;;;;;3.15;1.30;;;11.80;99.90;;;10.22;73.12;100388.50;5196001;26;20409;-83
2024/04/17 09:16:38;;;;;;;2.42;1.40;;;11.60;99.90;;;10.14;72.73;100385.41;5191867;26;19998;-83
2024/04/17 09:19:06;;;;;;;4.88;1.35;;;;;;;10.00;74.07;100387.88;5252318;26;20015;-84
2024/04/17 09:21:38;;;;;;;4.10;1.00;;;11.20;99.90;;;9.99;73.98;100386.19;5265624;26;20719;-84
2024/04/17 09:24:04;;;;;;;2.72;1.00;;;11.10;99.90;;;9.72;72.52;100391.00;5263420;26;20006;-84
2024/04/17 09:26:30;;;;;;;3.08;0.90;;;11.00;99.90;;;9.48;72.84;100393.03;5280538;26;20372;-82
2024/04/17 09:28:56;;;;;;;3.72;0.95;;;10.80;99.90;;;9.22;73.55;100380.19;5241260;26;20003;-83
2024/04/17 09:31:28;;;;;;;3.47;1.20;;;10.60;99.90;;;9.07;74.01;100378.28;5280712;26;20012;-85
2024/04/17 09:33:59;;;;;;;7.47;1.00;;;10.50;99.90;;;9.24;74.44;100375.72;5226121;26;20361;-84
2024/04/17 09:36:25;;;;;;;3.72;0.88;;;10.60;99.90;;;9.34;74.69;100373.50;5221714;27;20017;-83
2024/04/17 09:38:59;;;;;;;1.70;0.85;;;10.70;99.90;;;9.50;74.64;100378.88;5295868;26;20018;-84
2024/04/17 09:41:28;;;;;;;3.55;0.80;;;10.70;99.90;;;9.36;75.06;100381.31;5266966;26;20407;-85
2024/04/17 09:44:02;;;;;;;1.13;0.65;;;10.70;99.90;;;9.32;74.14;100385.88;5246158;27;20006;-83
2024/04/17 09:46:41;;;;;;;2.22;0.65;;;10.70;99.90;;;9.26;73.38;100391.41;5273636;26;20021;-83
2024/04/17 09:49:22;;;;;;;1.67;0.70;;;10.50;99.90;;;9.08;73.27;100397.53;5201453;27;20005;-83
2024/04/17 09:51:58;;;;;;;2.15;0.50;;;10.40;99.90;;;9.05;73.08;100390.63;5222999;26;20020;-83
2024/04/17 09:54:30;;;;;;;1.45;0.40;;;10.30;99.90;;;8.87;72.54;100394.94;5255166;26;20065;-83
2024/04/17 09:56:58;;;;;;;5.00;0.60;;;10.20;99.90;;;8.75;72.27;100385.84;5249868;26;20016;-83
2024/04/17 09:59:33;;;;;;;1.27;0.50;;;10.20;99.90;;;8.86;71.39;100392.38;5298440;26;20013;-84
2024/04/17 10:02:00;;;;;;;2.28;0.60;;;10.20;99.90;;;9.20;72.40;100403.06;5266907;26;20022;-84
2024/04/17 10:04:33;;;;;;;0.60;0.50;;;10.30;99.90;;;9.59;72.40;100407.38;5236897;26;21462;-83
2024/04/17 10:07:03;;;;;;;2.30;0.52;;;10.80;99.90;;;10.16;71.59;100414.28;5282581;26;20000;-83
2024/04/17 10:09:35;;;;;;;2.45;0.75;;;11.30;99.90;;;10.41;73.10;100414.78;5227362;26;19999;-84
2024/04/17 10:12:20;;;;;;;1.05;0.50;;;11.50;99.90;;;10.16;70.55;100416.91;5213992;26;20002;-84
2024/04/17 10:14:48;;;;;;;2.63;0.60;;;11.40;99.90;;;9.95;71.67;100418.81;5249312;26;20348;-83
2024/04/17 10:17:22;;;;;;;2.22;0.55;;;11.20;99.90;;;9.75;73.01;100414.53;5232880;26;19997;-84
2024/04/17 10:20:00;;;;;;;5.35;0.68;;;11.00;99.90;;;9.19;72.15;100411.84;5264550;26;20021;-83
2024/04/17 10:22:29;;;;;;;1.10;0.68;;;10.80;99.90;;;9.27;70.79;100421.19;5213919;26;20049;-84